Saturday, September 20, 2014
22:07 UTC
  |  Log In   |  Register Free
Airport Search:

Olympia Regional Airport
(KOLM)

Airport information sponsored by:
Glacier Jet Center at Olympia Regional (KOLM), Olympia, WA
FAA data valid effective September 18, 2014 - November 13, 2014 (unless otherwise noted).

 
 
 
 
 
 
 
 
 
 
 
 
 
 

Current Aviation Weather for Olympia Regional Airport (KOLM)

The most recent METAR observation for KOLM was updated at: 2119
METAR Summary (Translated METAR)
KOLM
202054Z 03014KT 10SM CLR 22/13 A3000 RMK AO2 SLP160 T02220128 58027
KGRF
202058Z AUTO 35010KT 10SM CLR 22/13 A3000 RMK AO2 SLP162 T02180133 57027 PWINO $
(14.7 nm NE from KOLM)
KCLS
202055Z AUTO 02011KT 10SM CLR 24/15 A2998 RMK AO2
(17.9 nm SW from KOLM)
TAF Summary (Translated TAF)
KOLM
201720Z 2018/2118 04010KT 5SM BR OVC005 FM201900 04010KT P6SM SCT005 FM202000 03010KT P6SM SKC FM210300 00000KT P6SM SKC
KGRF
(14.7 nm NE from KOLM)
2021/2203 02009KT 9999 FEW110 QNH2997INS BECMG 2108/2109 22009KT 9999 FEW140 QNH3000INS TX26/2200Z TN16/2112Z
  Airport Weather Conditions for KOLM

 Current Weather at OLM
72° F
Fair
Northeast winds at 16.1 mph
OLM NOAA Radar

Pressure: 30.00 in
Humidity: 55%
Wind: Northeast at 16.1 MPH (14 KT)
Dew Point: 55.0°F
Visibility: 10.00 mi


Airport Weather Forecast for KOLM

Translated METAR and TAF for KOLM
Translated METAR for KOLM (2201 UTC 20 September 2014)
found at http://aviationweather.gov/adds/metars/
 
METAR text: KOLM 202154Z 05007KT 10SM CLR 24/13 A2997 RMK AO2 SLP149 T02390128
Conditions at: KOLM (OLYMPIA , WA, US) observed 2154 UTC 20 September 2014
Temperature: 23.9°C (75°F)
Dewpoint: 12.8°C (55°F) [RH = 50%]
Pressure (altimeter): 29.97 inches Hg (1015.0 mb)
[Sea-level pressure: 1014.9 mb]
Winds: from the NE (50 degrees) at 8 MPH (7 knots; 3.6 m/s)
Visibility: 10 or more miles (16+ km)
Ceiling: at least 12,000 feet AGL
Clouds: sky clear below 12,000 feet AGL
Weather: no significant weather observed at this time
Translated TAF for KOLM
Forecast for: KOLM (OLYMPIA , WA, US)
TAF Text: KOLM 201720Z 2018/2118 04010KT 5SM BR OVC005
Forecast period: 1800 to 1900 UTC 20 September 2014
Forecast type: FROM: standard forecast or significant change
Winds: from the NE (40 degrees) at 12 MPH (10 knots; 5.2 m/s)
Visibility: 5 miles (8 km)
Ceiling: 500 feet AGL
Clouds: overcast cloud deck at 500 feet AGL
Weather: BR  (mist)
TAF Text: FM201900 04010KT P6SM SCT005
Forecast period: 1900 to 2000 UTC 20 September 2014
Forecast type: FROM: standard forecast or significant change
Winds: from the NE (40 degrees) at 12 MPH (10 knots; 5.2 m/s)
Visibility: 6 or more miles (10+ km)
Clouds: scattered clouds at 500 feet AGL
Weather: no significant weather forecast for this period
TAF Text: FM202000 03010KT P6SM SKC
Forecast period: 2000 UTC 20 September 2014 to 0300 UTC 21 September 2014
Forecast type: FROM: standard forecast or significant change
Winds: from the NNE (30 degrees) at 12 MPH (10 knots; 5.2 m/s)
Visibility: 6 or more miles (10+ km)
Clouds: clear skies
Weather: no significant weather forecast for this period
TAF Text: FM210300 00000KT P6SM SKC
Forecast period: 0300 to 1800 UTC 21 September 2014
Forecast type: FROM: standard forecast or significant change
Winds: calm
Visibility: 6 or more miles (10+ km)
Clouds: clear skies
Weather: no significant weather forecast for this period

Find All Airport Services Find A Hotel Find A Rental Car Find A Golf Course Find A Restaurant $100 Hamburger



FBO's on the Field
FBO Company Facility Photos Services Transportation Aviation Fuel Prices: Prices include tax
Catering Weather Repair Courtesy Rental Type 100LL JetA JetA+ MOGAS 8087
 
Glacier Jet Center

Glacier Jet Center logo
This FBO has not yet been rated
FS:
Last Updated: Sep-19
Login to update fuel prices
SS:
Contact Glacier Jet CenterMore FBO Information
 
Jorgensen Air Service

Jorgensen Air Service logo
Currently rated 4.7 by 3 people
FS:
Last Updated: Sep-17
Login to update fuel prices
SS:
Contact Jorgensen Air ServiceMore FBO Information
 
Add another FBO Facility Photos Catering Weather Repair Courtesy Rental Type 100LL JetA JetA+ MOGAS 8087
Services Transportation Aviation Fuel Prices: Prices include tax


model-print
model-print
model-print
model-print